CSCL Dalian — VRBH4 — position and weather

sailwx.info

Track history (hours):
 
Tides and Currents Weather Stations Pressure Air Temp Water Temp Dewpoint Dewpoint Depression Visibility Wind Speed Wind Dir Waves Ship Positions

CSCL Dalian

Last reported at 2016-Dec-07 19:34 UTC. Time now 2016-Dec-07 20:18 UTC.
Position N 48°07' W 122°41'.

Length 259.8 m; ; draft 11 m.

Type: Cargo ship. MMSI: 477014600.

Date/timePositionNaut miles runAvg speedWind from/ knotsBaromVisibWave heightAir tempDewpointWater temp
2016-Dec-07 19:34N 48°07' W 122°41'1717.5
2016-Dec-07 18:34N 48°12' W 123°06'1414.2
2016-Dec-07 17:33N 48°12' W 123°28'10 9.8
2016-Dec-07 16:31N 48°13' W 123°43'1010.0
2016-Dec-07 15:33N 48°14' W 123°57'1212.0
2016-Dec-07 14:33N 48°19' W 124°13'1615.6
2016-Dec-07 13:34N 48°26' W 124°34'1514.4
2016-Dec-07 12:33N 48°29' W 124°56'1414.0
2016-Dec-07 11:33N 48°17' W 125°07'1515.3
2016-Dec-07 10:33N 48°02' W 125°14'6115.4
2016-Dec-07 06:32N 47°01' W 125°10'1515.4
2016-Dec-07 05:34N 46°46' W 125°07'1515.2
2016-Dec-07 04:33N 46°31' W 125°06'1515.3
2016-Dec-07 03:34N 46°15' W 125°06'1515.2
2016-Dec-07 02:34N 46°00' W 125°06'1615.5
2016-Dec-07 01:32N 45°44' W 125°06'1515.5
2016-Dec-07 00:33N 45°29' W 125°07'1413.9
2016-Dec-06 23:33N 45°15' W 125°07'1616.2
2016-Dec-06 22:33N 44°59' W 125°07'37514.9
2016-Dec-05 21:23N 38°48' W 124°00'1314.7
2016-Dec-05 20:31N 38°38' W 123°50'1414.7
2016-Dec-05 19:33N 38°27' W 123°38'1515.3
2016-Dec-05 18:33N 38°16' W 123°26'1515.1
2016-Dec-05 17:33N 38°04' W 123°13'1514.9
2016-Dec-05 16:34N 37°54' W 122°59'1515.4
2016-Dec-05 15:34N 37°46' W 122°43'1313.4
2016-Dec-05 14:33N 37°50' W 122°27'6 6.2
2016-Dec-05 13:32N 37°48' W 122°19'0 0.0
2016-Dec-05 12:32N 37°48' W 122°19'0 0.0
2016-Dec-05 11:32N 37°48' W 122°19'0 0.0
2016-Dec-05 10:33N 37°48' W 122°19'0 0.0
2016-Dec-05 09:33N 37°48' W 122°19'0 0.0
2016-Dec-05 08:33N 37°48' W 122°19'0 0.0
2016-Dec-05 07:33N 37°48' W 122°19'0 0.0
2016-Dec-05 06:33N 37°48' W 122°19'0 0.0
2016-Dec-05 05:33N 37°48' W 122°19'0 0.0
2016-Dec-05 04:34N 37°48' W 122°19'0 0.0
2016-Dec-05 03:33N 37°48' W 122°19'0 0.0
2016-Dec-05 02:33N 37°48' W 122°19'0 0.0
2016-Dec-05 01:33N 37°48' W 122°19'0 0.0
2016-Dec-05 00:33N 37°48' W 122°19'0 0.0
2016-Dec-04 23:33N 37°48' W 122°19'0 0.2
2016-Dec-04 22:33N 37°48' W 122°19'3 2.6
2016-Dec-04 21:33N 37°48' W 122°22'1413.8
2016-Dec-04 20:34N 37°45' W 122°39'7 6.7
2016-Dec-04 19:33N 37°38' W 122°40'10 9.6
2016-Dec-04 18:33N 37°29' W 122°40'9 9.5
2016-Dec-04 17:34N 37°19' W 122°40'10 9.5
2016-Dec-04 16:34N 37°10' W 122°39'1211.5
2016-Dec-04 15:33N 36°59' W 122°33'1211.6
2016-Dec-04 14:30N 36°48' W 122°27'5611.1
2016-Dec-04 09:28N 35°57' W 121°58'1011.5
2016-Dec-04 08:34N 35°48' W 121°52'1211.9
2016-Dec-04 07:31N 35°37' W 121°44'1212.1
2016-Dec-04 06:34N 35°27' W 121°37'1212.1
2016-Dec-04 05:32N 35°17' W 121°29'1211.9
2016-Dec-04 04:33N 35°06' W 121°22'1211.9
2016-Dec-04 03:30N 34°56' W 121°15'1111.9
2016-Dec-04 02:33N 34°46' W 121°08'3210.3
2016-Dec-03 23:28N 34°24' W 120°40'126 3.8
2016-Dec-02 14:30N 33°44' W 118°15'1 0.7
2016-Dec-02 13:33N 33°43' W 118°16'6 6.0
2016-Dec-02 12:33N 33°38' W 118°12'9 9.3
2016-Dec-02 11:33N 33°30' W 118°07'1010.3
2016-Dec-02 10:33N 33°20' W 118°03'1110.6
2016-Dec-02 09:33N 33°10' W 117°59'1111.1
2016-Dec-02 08:33N 33°00' W 117°53'1211.8
2016-Dec-02 07:33N 32°48' W 117°51'1212.0
2016-Dec-02 06:33N 32°37' W 117°46'1110.7
2016-Dec-02 05:34N 32°28' W 117°40'1515.1
2016-Dec-02 04:33N 32°13' W 117°39'  
Track history (hours):
 
Tides and Currents Weather Stations Pressure Air Temp Water Temp Dewpoint Dewpoint Depression Visibility Wind Speed Wind Dir Waves Ship Positions

CSCL Dalian

Last reported at 2016-Dec-07 19:34 UTC. Time now 2016-Dec-07 20:18 UTC.
Position N 48°07' W 122°41'.

Length 259.8 m; ; draft 11 m.

Type: Cargo ship. MMSI: 477014600.

Date/timePositionNaut miles runAvg speedWind from/ knotsBaromVisibWave heightAir tempDewpointWater temp
2016-Dec-07 19:34N 48°07' W 122°41'1717.5
2016-Dec-07 18:34N 48°12' W 123°06'1414.2
2016-Dec-07 17:33N 48°12' W 123°28'10 9.8
2016-Dec-07 16:31N 48°13' W 123°43'1010.0
2016-Dec-07 15:33N 48°14' W 123°57'1212.0
2016-Dec-07 14:33N 48°19' W 124°13'1615.6
2016-Dec-07 13:34N 48°26' W 124°34'1514.4
2016-Dec-07 12:33N 48°29' W 124°56'1414.0
2016-Dec-07 11:33N 48°17' W 125°07'1515.3
2016-Dec-07 10:33N 48°02' W 125°14'6115.4
2016-Dec-07 06:32N 47°01' W 125°10'1515.4
2016-Dec-07 05:34N 46°46' W 125°07'1515.2
2016-Dec-07 04:33N 46°31' W 125°06'1515.3
2016-Dec-07 03:34N 46°15' W 125°06'1515.2
2016-Dec-07 02:34N 46°00' W 125°06'1615.5
2016-Dec-07 01:32N 45°44' W 125°06'1515.5
2016-Dec-07 00:33N 45°29' W 125°07'1413.9
2016-Dec-06 23:33N 45°15' W 125°07'1616.2
2016-Dec-06 22:33N 44°59' W 125°07'37514.9
2016-Dec-05 21:23N 38°48' W 124°00'1314.7
2016-Dec-05 20:31N 38°38' W 123°50'1414.7
2016-Dec-05 19:33N 38°27' W 123°38'1515.3
2016-Dec-05 18:33N 38°16' W 123°26'1515.1
2016-Dec-05 17:33N 38°04' W 123°13'1514.9
2016-Dec-05 16:34N 37°54' W 122°59'1515.4
2016-Dec-05 15:34N 37°46' W 122°43'1313.4
2016-Dec-05 14:33N 37°50' W 122°27'6 6.2
2016-Dec-05 13:32N 37°48' W 122°19'0 0.0
2016-Dec-05 12:32N 37°48' W 122°19'0 0.0
2016-Dec-05 11:32N 37°48' W 122°19'0 0.0
2016-Dec-05 10:33N 37°48' W 122°19'0 0.0
2016-Dec-05 09:33N 37°48' W 122°19'0 0.0
2016-Dec-05 08:33N 37°48' W 122°19'0 0.0
2016-Dec-05 07:33N 37°48' W 122°19'0 0.0
2016-Dec-05 06:33N 37°48' W 122°19'0 0.0
2016-Dec-05 05:33N 37°48' W 122°19'0 0.0
2016-Dec-05 04:34N 37°48' W 122°19'0 0.0
2016-Dec-05 03:33N 37°48' W 122°19'0 0.0
2016-Dec-05 02:33N 37°48' W 122°19'0 0.0
2016-Dec-05 01:33N 37°48' W 122°19'0 0.0
2016-Dec-05 00:33N 37°48' W 122°19'0 0.0
2016-Dec-04 23:33N 37°48' W 122°19'0 0.2
2016-Dec-04 22:33N 37°48' W 122°19'3 2.6
2016-Dec-04 21:33N 37°48' W 122°22'1413.8
2016-Dec-04 20:34N 37°45' W 122°39'7 6.7
2016-Dec-04 19:33N 37°38' W 122°40'10 9.6
2016-Dec-04 18:33N 37°29' W 122°40'9 9.5
2016-Dec-04 17:34N 37°19' W 122°40'10 9.5
2016-Dec-04 16:34N 37°10' W 122°39'1211.5
2016-Dec-04 15:33N 36°59' W 122°33'1211.6
2016-Dec-04 14:30N 36°48' W 122°27'5611.1
2016-Dec-04 09:28N 35°57' W 121°58'1011.5
2016-Dec-04 08:34N 35°48' W 121°52'1211.9
2016-Dec-04 07:31N 35°37' W 121°44'1212.1
2016-Dec-04 06:34N 35°27' W 121°37'1212.1
2016-Dec-04 05:32N 35°17' W 121°29'1211.9
2016-Dec-04 04:33N 35°06' W 121°22'1211.9
2016-Dec-04 03:30N 34°56' W 121°15'1111.9
2016-Dec-04 02:33N 34°46' W 121°08'3210.3
2016-Dec-03 23:28N 34°24' W 120°40'126 3.8
2016-Dec-02 14:30N 33°44' W 118°15'1 0.7
2016-Dec-02 13:33N 33°43' W 118°16'6 6.0
2016-Dec-02 12:33N 33°38' W 118°12'9 9.3
2016-Dec-02 11:33N 33°30' W 118°07'1010.3
2016-Dec-02 10:33N 33°20' W 118°03'1110.6
2016-Dec-02 09:33N 33°10' W 117°59'1111.1
2016-Dec-02 08:33N 33°00' W 117°53'1211.8
2016-Dec-02 07:33N 32°48' W 117°51'1212.0
2016-Dec-02 06:33N 32°37' W 117°46'1110.7
2016-Dec-02 05:34N 32°28' W 117°40'1515.1
2016-Dec-02 04:33N 32°13' W 117°39'  

Dump ship's entire track history